KMCD

Mackinac Island Airport

Mackinac Island, Michigan, USA
METAR KMCD 221515Z AUTO 00000KT 10SM CLR 16/04 A3003 RMK AO2 T01610039
Observed Flight Rules
May-22 @ 15:15 UTC (19 minutes ago) Visual Flight Rules
Visibility Clouds
10 miles
  • Clear skies
Temperatures Readings
Current 16°C / 61°F
Dewpoint 4°C / 39°F
Humidity 45%
Altimeter 30.03" Hg
Pressure 1017 hPa
Elevation 226
METAR KMCD 221515Z AUTO 00000KT 10SM CLR 16/04 A3003 RMK AO2 T01610039
Observed Flight Rules
May-22 @ 15:15 UTC
(19 minutes ago)
VFR
Clouds
  • Clear skies
Temperature Dewpoint
16°C / 61°F 4°C / 39°F
Humidity Altimeter Pressure
45% 30.03" Hg 1017 hPa